Time,TemperatureF,DewpointF,PressureIn,WindDirection,WindDirectionDegrees,WindSpeedMPH,WindSpeedGustMPH,Humidity,HourlyPrecipIn,Conditions,Clouds,dailyrainin,SoftwareType,DateUTC
2013-12-16 00:01:00,22.5,20.3,30.03,WSW,247,1.7,-999.0,91,-99.99,,,0.00,Acu-Link.com,2013-12-16 05:01:00,
2013-12-16 00:16:00,22.5,20.3,30.04,WNW,292,0.0,-999.0,91,-99.99,,,0.00,Acu-Link.com,2013-12-16 05:16:00,
2013-12-16 00:32:00,22.3,20.1,30.04,NNW,337,0.0,-999.0,91,-99.99,,,0.00,Acu-Link.com,2013-12-16 05:32:00,
2013-12-16 00:47:00,22.3,20.1,30.04,SSW,202,0.0,-999.0,91,-99.99,,,0.00,Acu-Link.com,2013-12-16 05:47:00,
2013-12-16 01:02:00,22.1,19.9,30.04,SSE,157,0.0,-999.0,91,-99.99,,,0.00,Acu-Link.com,2013-12-16 06:02:00,
2013-12-16 01:17:00,21.9,19.7,30.03,NNW,337,0.0,-999.0,91,-99.99,,,0.00,Acu-Link.com,2013-12-16 06:17:00,
2013-12-16 01:32:00,21.7,19.5,30.03,WNW,292,0.0,-999.0,91,-99.99,,,0.00,Acu-Link.com,2013-12-16 06:32:00,
2013-12-16 01:47:00,21.6,19.6,30.02,WNW,292,1.1,-999.0,92,-99.99,,,0.00,Acu-Link.com,2013-12-16 06:47:00,
2013-12-16 02:02:00,21.6,19.6,30.02,WNW,292,0.0,-999.0,92,-99.99,,,0.00,Acu-Link.com,2013-12-16 07:02:00,
2013-12-16 02:17:00,21.6,19.6,30.03,NE,45,0.0,-999.0,92,-99.99,,,0.00,Acu-Link.com,2013-12-16 07:17:00,
2013-12-16 02:32:00,21.6,19.6,30.02,NNE,22,0.0,-999.0,92,-99.99,,,0.00,Acu-Link.com,2013-12-16 07:32:00,
2013-12-16 02:48:00,21.4,19.4,30.03,NE,45,0.0,-999.0,92,-99.99,,,0.00,Acu-Link.com,2013-12-16 07:48:00,
2013-12-16 03:03:00,21.4,19.4,30.03,ENE,67,1.1,-999.0,92,-99.99,,,0.00,Acu-Link.com,2013-12-16 08:03:00,
2013-12-16 03:18:00,21.4,19.4,30.02,East,90,0.0,-999.0,92,-99.99,,,0.00,Acu-Link.com,2013-12-16 08:18:00,
2013-12-16 03:33:00,21.2,19.2,30.01,NE,45,3.2,-999.0,92,-99.99,,,0.00,Acu-Link.com,2013-12-16 08:33:00,
2013-12-16 03:48:00,21.0,19.0,30.00,East,90,1.7,-999.0,92,-99.99,,,0.00,Acu-Link.com,2013-12-16 08:48:00,
2013-12-16 04:03:00,20.5,18.6,30.00,North,0,2.2,-999.0,92,-99.99,,,0.00,Acu-Link.com,2013-12-16 09:03:00,
2013-12-16 04:18:00,20.5,18.6,29.99,ENE,67,2.2,-999.0,92,-99.99,,,0.00,Acu-Link.com,2013-12-16 09:18:00,
2013-12-16 04:33:00,20.7,18.8,29.98,ESE,112,1.1,-999.0,92,-99.99,,,0.00,Acu-Link.com,2013-12-16 09:33:00,
2013-12-16 04:48:00,20.8,18.9,29.97,East,90,1.7,-999.0,92,-99.99,,,0.00,Acu-Link.com,2013-12-16 09:48:00,
2013-12-16 05:04:00,20.8,18.9,29.98,East,90,2.7,-999.0,92,-99.99,,,0.00,Acu-Link.com,2013-12-16 10:04:00,
2013-12-16 05:19:00,21.0,19.0,29.98,East,90,2.2,-999.0,92,-99.99,,,0.00,Acu-Link.com,2013-12-16 10:19:00,
2013-12-16 05:34:00,21.0,19.0,29.99,ENE,67,2.7,-999.0,92,-99.99,,,0.00,Acu-Link.com,2013-12-16 10:34:00,
2013-12-16 05:49:00,20.8,18.9,29.98,East,90,3.7,-999.0,92,-99.99,,,0.00,Acu-Link.com,2013-12-16 10:49:00,
2013-12-16 06:04:00,20.8,18.9,29.98,East,90,2.7,-999.0,92,-99.99,,,0.00,Acu-Link.com,2013-12-16 11:04:00,
2013-12-16 06:19:00,20.8,18.9,29.98,ENE,67,2.7,-999.0,92,-99.99,,,0.00,Acu-Link.com,2013-12-16 11:19:00,
2013-12-16 06:34:00,20.7,18.8,29.99,East,90,2.7,-999.0,92,-99.99,,,0.00,Acu-Link.com,2013-12-16 11:34:00,
2013-12-16 06:49:00,20.7,18.8,29.99,East,90,3.7,-999.0,92,-99.99,,,0.00,Acu-Link.com,2013-12-16 11:49:00,
2013-12-16 07:04:00,20.7,18.8,29.99,ENE,67,3.7,-999.0,92,-99.99,,,0.00,Acu-Link.com,2013-12-16 12:04:00,
2013-12-16 07:20:00,20.3,18.4,29.99,ENE,67,4.7,-999.0,92,-99.99,,,0.00,Acu-Link.com,2013-12-16 12:20:00,
2013-12-16 07:35:00,19.4,17.5,29.99,ESE,112,4.7,-999.0,92,-99.99,,,0.00,Acu-Link.com,2013-12-16 12:35:00,
2013-12-16 07:50:00,19.0,17.1,30.00,East,90,3.7,-999.0,92,-99.99,,,0.00,Acu-Link.com,2013-12-16 12:50:00,
2013-12-16 08:05:00,19.0,17.1,30.00,NE,45,3.2,-999.0,92,-99.99,,,0.00,Acu-Link.com,2013-12-16 13:05:00,
2013-12-16 08:20:00,19.0,17.1,30.00,East,90,3.7,-999.0,92,-99.99,,,0.00,Acu-Link.com,2013-12-16 13:20:00,
2013-12-16 08:35:00,19.2,17.3,29.99,East,90,2.2,-999.0,92,-99.99,,,0.00,Acu-Link.com,2013-12-16 13:35:00,
2013-12-16 08:50:00,19.4,17.5,29.99,East,90,4.7,-999.0,92,-99.99,,,0.00,Acu-Link.com,2013-12-16 13:50:00,
2013-12-16 09:05:00,19.8,17.6,30.00,ESE,112,1.1,-999.0,91,-99.99,,,0.00,Acu-Link.com,2013-12-16 14:05:00,
2013-12-16 09:20:00,19.8,17.6,30.00,East,90,3.2,-999.0,91,-99.99,,,0.00,Acu-Link.com,2013-12-16 14:20:00,
2013-12-16 09:36:00,20.7,18.5,29.99,ESE,112,3.2,-999.0,91,-99.99,,,0.00,Acu-Link.com,2013-12-16 14:36:00,
2013-12-16 09:51:00,21.4,19.2,29.99,ESE,112,3.2,-999.0,91,-99.99,,,0.00,Acu-Link.com,2013-12-16 14:51:00,
2013-12-16 10:06:00,22.3,19.8,29.99,East,90,3.2,-999.0,90,-99.99,,,0.00,Acu-Link.com,2013-12-16 15:06:00,
2013-12-16 10:21:00,23.0,20.5,30.00,ESE,112,3.2,-999.0,90,-99.99,,,0.00,Acu-Link.com,2013-12-16 15:21:00,
2013-12-16 10:36:00,23.5,21.0,30.00,ESE,112,1.7,-999.0,90,-99.99,,,0.00,Acu-Link.com,2013-12-16 15:36:00,
2013-12-16 10:51:00,24.1,21.3,30.01,ESE,112,3.2,-999.0,89,-99.99,,,0.00,Acu-Link.com,2013-12-16 15:51:00,
2013-12-16 11:06:00,24.4,21.6,30.01,ESE,112,1.1,-999.0,89,-99.99,,,0.00,Acu-Link.com,2013-12-16 16:06:00,
2013-12-16 11:21:00,25.0,22.2,30.02,East,90,3.7,-999.0,89,-99.99,,,0.00,Acu-Link.com,2013-12-16 16:21:00,
2013-12-16 11:36:00,24.8,22.0,30.00,ENE,67,3.2,-999.0,89,-99.99,,,0.00,Acu-Link.com,2013-12-16 16:36:00,
2013-12-16 11:52:00,24.6,21.8,29.99,East,90,2.2,-999.0,89,-99.99,,,0.00,Acu-Link.com,2013-12-16 16:52:00,
2013-12-16 12:07:00,25.0,22.2,29.97,East,90,4.2,-999.0,89,-99.99,,,0.00,Acu-Link.com,2013-12-16 17:07:00,
2013-12-16 12:22:00,24.8,22.3,29.98,ESE,112,2.2,-999.0,90,-99.99,,,0.00,Acu-Link.com,2013-12-16 17:22:00,
2013-12-16 12:37:00,25.0,22.5,29.97,East,90,2.2,-999.0,90,-99.99,,,0.00,Acu-Link.com,2013-12-16 17:37:00,
2013-12-16 12:52:00,25.0,22.5,29.96,ENE,67,2.7,-999.0,90,-99.99,,,0.00,Acu-Link.com,2013-12-16 17:52:00,
2013-12-16 13:07:00,25.9,23.4,29.95,ESE,112,2.2,-999.0,90,-99.99,,,0.00,Acu-Link.com,2013-12-16 18:07:00,
2013-12-16 13:22:00,26.6,24.1,29.93,East,90,2.7,-999.0,90,-99.99,,,0.00,Acu-Link.com,2013-12-16 18:22:00,
2013-12-16 13:37:00,27.3,24.2,29.93,ESE,112,1.7,-999.0,88,-99.99,,,0.00,Acu-Link.com,2013-12-16 18:37:00,
2013-12-16 13:52:00,28.0,24.6,29.94,South,180,0.0,-999.0,87,-99.99,,,0.00,Acu-Link.com,2013-12-16 18:52:00,
2013-12-16 14:08:00,28.0,24.9,29.93,ESE,112,2.2,-999.0,88,-99.99,,,0.00,Acu-Link.com,2013-12-16 19:08:00,
2013-12-16 14:23:00,28.0,25.2,29.94,ENE,67,1.7,-999.0,89,-99.99,,,0.00,Acu-Link.com,2013-12-16 19:23:00,
2013-12-16 14:38:00,27.1,24.3,29.94,NNE,22,3.2,-999.0,89,-99.99,,,0.00,Acu-Link.com,2013-12-16 19:38:00,
2013-12-16 14:53:00,27.1,24.6,29.93,East,90,3.7,-999.0,90,-99.99,,,0.00,Acu-Link.com,2013-12-16 19:53:00,
2013-12-16 15:08:00,27.5,25.0,29.92,East,90,3.2,-999.0,90,-99.99,,,0.00,Acu-Link.com,2013-12-16 20:08:00,
2013-12-16 15:23:00,27.9,25.4,29.93,ESE,112,1.7,-999.0,90,-99.99,,,0.00,Acu-Link.com,2013-12-16 20:23:00,
2013-12-16 15:38:00,27.3,24.8,29.92,ESE,112,2.2,-999.0,90,-99.99,,,0.00,Acu-Link.com,2013-12-16 20:38:00,
2013-12-16 15:54:00,27.5,25.0,29.93,SE,135,0.0,-999.0,90,-99.99,,,0.00,Acu-Link.com,2013-12-16 20:54:00,
2013-12-16 16:09:00,27.5,25.2,29.93,ESE,112,0.0,-999.0,91,-99.99,,,0.00,Acu-Link.com,2013-12-16 21:09:00,
2013-12-16 16:24:00,27.1,24.8,29.94,SE,135,0.0,-999.0,91,-99.99,,,0.00,Acu-Link.com,2013-12-16 21:24:00,
2013-12-16 16:39:00,27.1,25.1,29.93,SE,135,0.0,-999.0,92,-99.99,,,0.00,Acu-Link.com,2013-12-16 21:39:00,
2013-12-16 16:54:00,27.1,25.1,29.93,ESE,112,0.0,-999.0,92,-99.99,,,0.00,Acu-Link.com,2013-12-16 21:54:00,
2013-12-16 17:09:00,27.1,25.4,29.93,ESE,112,1.1,-999.0,93,-99.99,,,0.00,Acu-Link.com,2013-12-16 22:09:00,
2013-12-16 17:24:00,27.0,25.3,29.94,SSW,202,0.0,-999.0,93,-99.99,,,0.00,Acu-Link.com,2013-12-16 22:24:00,
2013-12-16 17:39:00,27.0,25.3,29.93,SSW,202,0.0,-999.0,93,-99.99,,,0.00,Acu-Link.com,2013-12-16 22:39:00,
2013-12-16 17:54:00,27.0,25.5,29.92,ESE,112,0.0,-999.0,94,-99.99,,,0.00,Acu-Link.com,2013-12-16 22:54:00,
2013-12-16 18:10:00,27.0,25.5,29.92,SE,135,0.0,-999.0,94,-99.99,,,0.00,Acu-Link.com,2013-12-16 23:10:00,
2013-12-16 18:25:00,27.0,25.5,29.92,South,180,0.0,-999.0,94,-99.99,,,0.00,Acu-Link.com,2013-12-16 23:25:00,
2013-12-16 18:40:00,27.1,25.6,29.93,South,180,0.0,-999.0,94,-99.99,,,0.00,Acu-Link.com,2013-12-16 23:40:00,
2013-12-16 18:55:00,27.5,26.0,29.92,SSE,157,0.0,-999.0,94,-99.99,,,0.00,Acu-Link.com,2013-12-16 23:55:00,
2013-12-16 19:10:00,27.5,26.0,29.93,ESE,112,0.0,-999.0,94,-99.99,,,0.00,Acu-Link.com,2013-12-17 00:10:00,
2013-12-16 19:25:00,27.5,26.0,29.93,ESE,112,0.0,-999.0,94,-99.99,,,0.00,Acu-Link.com,2013-12-17 00:25:00,
2013-12-16 19:40:00,27.7,26.2,29.93,SE,135,0.0,-999.0,94,-99.99,,,0.00,Acu-Link.com,2013-12-17 00:40:00,
2013-12-16 19:55:00,27.7,26.2,29.91,SE,135,1.7,-999.0,94,-99.99,,,0.00,Acu-Link.com,2013-12-17 00:55:00,
2013-12-16 20:10:00,27.7,26.2,29.91,South,180,0.0,-999.0,94,-99.99,,,0.00,Acu-Link.com,2013-12-17 01:10:00,
2013-12-16 20:26:00,27.1,25.6,29.93,South,180,2.2,-999.0,94,-99.99,,,0.00,Acu-Link.com,2013-12-17 01:26:00,
2013-12-16 20:41:00,26.6,25.1,29.93,West,270,0.0,-999.0,94,-99.99,,,0.00,Acu-Link.com,2013-12-17 01:41:00,
2013-12-16 20:56:00,25.9,24.4,29.93,NW,315,0.0,-999.0,94,-99.99,,,0.00,Acu-Link.com,2013-12-17 01:56:00,
2013-12-16 21:11:00,25.3,23.8,29.92,WNW,292,0.0,-999.0,94,-99.99,,,0.00,Acu-Link.com,2013-12-17 02:11:00,
2013-12-16 21:26:00,25.0,23.5,29.93,NW,315,0.0,-999.0,94,-99.99,,,0.00,Acu-Link.com,2013-12-17 02:26:00,
2013-12-16 21:41:00,24.4,22.9,29.93,NW,315,0.0,-999.0,94,-99.99,,,0.00,Acu-Link.com,2013-12-17 02:41:00,
2013-12-16 21:56:00,24.1,22.9,29.93,West,270,0.0,-999.0,95,-99.99,,,0.00,Acu-Link.com,2013-12-17 02:56:00,
2013-12-16 22:11:00,23.9,22.7,29.94,NW,315,0.0,-999.0,95,-99.99,,,0.00,Acu-Link.com,2013-12-17 03:11:00,
2013-12-16 22:26:00,23.5,22.3,29.93,WSW,247,0.0,-999.0,95,-99.99,,,0.00,Acu-Link.com,2013-12-17 03:26:00,
2013-12-16 22:42:00,24.1,22.9,29.94,WNW,292,1.7,-999.0,95,-99.99,,,0.00,Acu-Link.com,2013-12-17 03:42:00,
2013-12-16 22:57:00,25.3,24.1,29.95,WSW,247,2.7,-999.0,95,-99.99,,,0.00,Acu-Link.com,2013-12-17 03:57:00,
2013-12-16 23:12:00,25.9,24.7,29.95,NNW,337,2.2,-999.0,95,-99.99,,,0.00,Acu-Link.com,2013-12-17 04:12:00,
2013-12-16 23:27:00,26.6,25.4,29.94,SW,225,1.1,-999.0,95,-99.99,,,0.00,Acu-Link.com,2013-12-17 04:27:00,
2013-12-16 23:42:00,27.1,25.9,29.94,WSW,247,4.2,-999.0,95,-99.99,,,0.00,Acu-Link.com,2013-12-17 04:42:00,
2013-12-16 23:57:00,27.1,25.9,29.94,WNW,292,3.7,-999.0,95,-99.99,,,0.00,Acu-Link.com,2013-12-17 04:57:00,